sensor_id;sensor_type;location;lat;lon;timestamp;temperature;humidity
71184;DHT22;58887;51.980;4.464;2023-08-24T00:02:08;19.36;75.23
71184;DHT22;58887;51.980;4.464;2023-08-24T00:04:33;19.41;75.34
71184;DHT22;58887;51.980;4.464;2023-08-24T00:06:59;19.42;75.33
71184;DHT22;58887;51.980;4.464;2023-08-24T00:09:28;19.47;75.24
71184;DHT22;58887;51.980;4.464;2023-08-24T00:11:53;19.44;75.16
71184;DHT22;58887;51.980;4.464;2023-08-24T00:14:19;19.42;75.35
71184;DHT22;58887;51.980;4.464;2023-08-24T00:16:44;19.41;75.33
71184;DHT22;58887;51.980;4.464;2023-08-24T00:19:10;19.44;75.16
71184;DHT22;58887;51.980;4.464;2023-08-24T00:21:36;19.45;74.99
71184;DHT22;58887;51.980;4.464;2023-08-24T00:24:02;19.36;75.03
71184;DHT22;58887;51.980;4.464;2023-08-24T00:26:28;19.36;75.11
71184;DHT22;58887;51.980;4.464;2023-08-24T00:28:54;19.38;75.50
71184;DHT22;58887;51.980;4.464;2023-08-24T00:31:19;19.42;75.45
71184;DHT22;58887;51.980;4.464;2023-08-24T00:33:52;19.42;75.20
71184;DHT22;58887;51.980;4.464;2023-08-24T00:36:17;19.44;75.43
71184;DHT22;58887;51.980;4.464;2023-08-24T00:38:48;19.41;75.67
71184;DHT22;58887;51.980;4.464;2023-08-24T00:41:16;19.42;75.51
71184;DHT22;58887;51.980;4.464;2023-08-24T00:43:43;19.41;75.38
71184;DHT22;58887;51.980;4.464;2023-08-24T00:46:14;19.31;75.82
71184;DHT22;58887;51.980;4.464;2023-08-24T00:48:42;19.39;75.55
71184;DHT22;58887;51.980;4.464;2023-08-24T00:51:08;19.42;75.54
71184;DHT22;58887;51.980;4.464;2023-08-24T00:53:35;19.47;75.35
71184;DHT22;58887;51.980;4.464;2023-08-24T00:56:04;19.49;75.20
71184;DHT22;58887;51.980;4.464;2023-08-24T00:58:31;19.49;75.18
71184;DHT22;58887;51.980;4.464;2023-08-24T01:00:57;19.56;74.90
71184;DHT22;58887;51.980;4.464;2023-08-24T01:03:24;19.62;74.84
71184;DHT22;58887;51.980;4.464;2023-08-24T01:05:49;19.61;75.15
71184;DHT22;58887;51.980;4.464;2023-08-24T01:08:16;19.65;74.96
71184;DHT22;58887;51.980;4.464;2023-08-24T01:13:52;19.75;74.71
71184;DHT22;58887;51.980;4.464;2023-08-24T01:16:28;19.78;74.66
71184;DHT22;58887;51.980;4.464;2023-08-24T01:18:57;19.76;74.60
71184;DHT22;58887;51.980;4.464;2023-08-24T01:21:28;19.76;74.81
71184;DHT22;58887;51.980;4.464;2023-08-24T01:24:04;19.79;74.60
71184;DHT22;58887;51.980;4.464;2023-08-24T01:26:47;19.76;74.85
71184;DHT22;58887;51.980;4.464;2023-08-24T01:29:14;19.78;75.15
71184;DHT22;58887;51.980;4.464;2023-08-24T01:31:41;19.80;74.94
71184;DHT22;58887;51.980;4.464;2023-08-24T01:34:13;19.70;75.33
71184;DHT22;58887;51.980;4.464;2023-08-24T01:36:39;19.72;75.26
71184;DHT22;58887;51.980;4.464;2023-08-24T01:39:13;19.73;75.61
71184;DHT22;58887;51.980;4.464;2023-08-24T01:41:43;19.82;75.46
71184;DHT22;58887;51.980;4.464;2023-08-24T01:44:17;19.78;75.48
71184;DHT22;58887;51.980;4.464;2023-08-24T01:46:45;19.76;75.81
71184;DHT22;58887;51.980;4.464;2023-08-24T01:49:18;19.75;75.94
71184;DHT22;58887;51.980;4.464;2023-08-24T01:51:46;19.75;76.23
71184;DHT22;58887;51.980;4.464;2023-08-24T01:54:14;19.68;76.30
71184;DHT22;58887;51.980;4.464;2023-08-24T01:56:39;19.61;76.66
71184;DHT22;58887;51.980;4.464;2023-08-24T01:59:05;19.54;77.14
71184;DHT22;58887;51.980;4.464;2023-08-24T02:01:30;19.51;76.93
71184;DHT22;58887;51.980;4.464;2023-08-24T02:03:58;19.52;76.76
71184;DHT22;58887;51.980;4.464;2023-08-24T02:06:24;19.51;76.81
71184;DHT22;58887;51.980;4.464;2023-08-24T02:08:50;19.48;76.87
71184;DHT22;58887;51.980;4.464;2023-08-24T02:11:15;19.39;77.04
71184;DHT22;58887;51.980;4.464;2023-08-24T02:13:41;19.35;77.46
71184;DHT22;58887;51.980;4.464;2023-08-24T02:16:08;19.38;77.44
71184;DHT22;58887;51.980;4.464;2023-08-24T02:18:34;19.34;77.53
71184;DHT22;58887;51.980;4.464;2023-08-24T02:20:59;19.31;77.70
71184;DHT22;58887;51.980;4.464;2023-08-24T02:23:25;19.29;77.82
71184;DHT22;58887;51.980;4.464;2023-08-24T02:25:52;19.25;77.84
71184;DHT22;58887;51.980;4.464;2023-08-24T02:28:18;19.24;77.78
71184;DHT22;58887;51.980;4.464;2023-08-24T02:30:43;19.24;77.80
71184;DHT22;58887;51.980;4.464;2023-08-24T02:33:09;19.19;77.77
71184;DHT22;58887;51.980;4.464;2023-08-24T02:35:34;19.22;77.79
71184;DHT22;58887;51.980;4.464;2023-08-24T02:38:00;19.24;77.95
71184;DHT22;58887;51.980;4.464;2023-08-24T02:40:25;19.27;77.96
71184;DHT22;58887;51.980;4.464;2023-08-24T02:42:50;19.28;77.80
71184;DHT22;58887;51.980;4.464;2023-08-24T02:45:16;19.29;77.98
71184;DHT22;58887;51.980;4.464;2023-08-24T02:47:41;19.28;77.94
71184;DHT22;58887;51.980;4.464;2023-08-24T02:50:07;19.32;77.81
71184;DHT22;58887;51.980;4.464;2023-08-24T02:52:33;19.35;77.56
71184;DHT22;58887;51.980;4.464;2023-08-24T02:54:58;19.35;77.52
71184;DHT22;58887;51.980;4.464;2023-08-24T02:57:24;19.38;77.55
71184;DHT22;58887;51.980;4.464;2023-08-24T02:59:51;19.38;77.64
71184;DHT22;58887;51.980;4.464;2023-08-24T03:02:17;19.38;77.49
71184;DHT22;58887;51.980;4.464;2023-08-24T03:04:43;19.32;77.37
71184;DHT22;58887;51.980;4.464;2023-08-24T03:07:09;19.34;77.48
71184;DHT22;58887;51.980;4.464;2023-08-24T03:09:35;19.32;77.45
71184;DHT22;58887;51.980;4.464;2023-08-24T03:12:01;19.35;77.37
71184;DHT22;58887;51.980;4.464;2023-08-24T03:14:26;19.35;77.47
71184;DHT22;58887;51.980;4.464;2023-08-24T03:16:52;19.35;77.51
71184;DHT22;58887;51.980;4.464;2023-08-24T03:19:18;19.32;77.59
71184;DHT22;58887;51.980;4.464;2023-08-24T03:21:44;19.35;77.65
71184;DHT22;58887;51.980;4.464;2023-08-24T03:24:10;19.32;77.57
71184;DHT22;58887;51.980;4.464;2023-08-24T03:26:36;19.32;77.58
71184;DHT22;58887;51.980;4.464;2023-08-24T03:29:01;19.28;77.64
71184;DHT22;58887;51.980;4.464;2023-08-24T03:31:27;19.24;77.80
71184;DHT22;58887;51.980;4.464;2023-08-24T03:33:52;19.14;78.15
71184;DHT22;58887;51.980;4.464;2023-08-24T03:36:18;19.15;78.14
71184;DHT22;58887;51.980;4.464;2023-08-24T03:38:44;19.17;78.11
71184;DHT22;58887;51.980;4.464;2023-08-24T03:41:11;19.15;78.08
71184;DHT22;58887;51.980;4.464;2023-08-24T03:43:37;19.07;78.32
71184;DHT22;58887;51.980;4.464;2023-08-24T03:46:04;19.07;78.19
71184;DHT22;58887;51.980;4.464;2023-08-24T03:48:37;19.04;78.21
71184;DHT22;58887;51.980;4.464;2023-08-24T03:51:04;19.01;78.25
71184;DHT22;58887;51.980;4.464;2023-08-24T03:53:30;18.98;78.45
71184;DHT22;58887;51.980;4.464;2023-08-24T03:55:55;18.94;78.47
71184;DHT22;58887;51.980;4.464;2023-08-24T03:58:20;18.94;78.56
71184;DHT22;58887;51.980;4.464;2023-08-24T04:00:46;18.91;78.72
71184;DHT22;58887;51.980;4.464;2023-08-24T04:03:12;18.90;78.84
71184;DHT22;58887;51.980;4.464;2023-08-24T04:05:38;18.90;78.90
71184;DHT22;58887;51.980;4.464;2023-08-24T04:08:03;18.87;78.86
71184;DHT22;58887;51.980;4.464;2023-08-24T04:10:30;18.87;78.83
71184;DHT22;58887;51.980;4.464;2023-08-24T04:12:56;18.84;78.85
71184;DHT22;58887;51.980;4.464;2023-08-24T04:15:22;18.87;79.15
71184;DHT22;58887;51.980;4.464;2023-08-24T04:17:53;18.87;79.37
71184;DHT22;58887;51.980;4.464;2023-08-24T04:20:19;18.91;79.69
71184;DHT22;58887;51.980;4.464;2023-08-24T04:22:45;18.97;79.51
71184;DHT22;58887;51.980;4.464;2023-08-24T04:25:10;19.00;79.60
71184;DHT22;58887;51.980;4.464;2023-08-24T04:27:36;19.12;79.38
71184;DHT22;58887;51.980;4.464;2023-08-24T04:30:04;19.12;79.13
71184;DHT22;58887;51.980;4.464;2023-08-24T04:32:32;19.14;78.79
71184;DHT22;58887;51.980;4.464;2023-08-24T04:34:58;19.03;78.99
71184;DHT22;58887;51.980;4.464;2023-08-24T04:37:23;18.98;79.13
71184;DHT22;58887;51.980;4.464;2023-08-24T04:39:49;18.94;79.23
71184;DHT22;58887;51.980;4.464;2023-08-24T04:42:15;18.91;79.27
71184;DHT22;58887;51.980;4.464;2023-08-24T04:44:40;18.84;79.36
71184;DHT22;58887;51.980;4.464;2023-08-24T04:47:07;18.86;79.43
71184;DHT22;58887;51.980;4.464;2023-08-24T04:49:33;18.83;79.59
71184;DHT22;58887;51.980;4.464;2023-08-24T04:51:58;18.80;79.63
71184;DHT22;58887;51.980;4.464;2023-08-24T04:54:24;18.79;79.56
71184;DHT22;58887;51.980;4.464;2023-08-24T04:56:49;18.80;79.62
71184;DHT22;58887;51.980;4.464;2023-08-24T04:59:15;18.80;79.67
71184;DHT22;58887;51.980;4.464;2023-08-24T05:01:40;18.81;79.72
71184;DHT22;58887;51.980;4.464;2023-08-24T05:04:06;18.83;79.82
71184;DHT22;58887;51.980;4.464;2023-08-24T05:06:31;18.80;80.05
71184;DHT22;58887;51.980;4.464;2023-08-24T05:08:57;18.83;80.04
71184;DHT22;58887;51.980;4.464;2023-08-24T05:11:24;18.87;80.07
71184;DHT22;58887;51.980;4.464;2023-08-24T05:13:51;18.90;80.02
71184;DHT22;58887;51.980;4.464;2023-08-24T05:16:17;18.90;80.11
71184;DHT22;58887;51.980;4.464;2023-08-24T05:18:42;18.96;80.06
71184;DHT22;58887;51.980;4.464;2023-08-24T05:21:08;18.94;80.06
71184;DHT22;58887;51.980;4.464;2023-08-24T05:23:34;18.94;80.22
71184;DHT22;58887;51.980;4.464;2023-08-24T05:26:01;18.97;80.27
71184;DHT22;58887;51.980;4.464;2023-08-24T05:28:29;19.06;80.32
71184;DHT22;58887;51.980;4.464;2023-08-24T05:30:56;19.14;80.23
71184;DHT22;58887;51.980;4.464;2023-08-24T05:33:23;19.19;80.12
71184;DHT22;58887;51.980;4.464;2023-08-24T05:35:51;19.22;80.18
71184;DHT22;58887;51.980;4.464;2023-08-24T05:38:17;19.32;79.95
71184;DHT22;58887;51.980;4.464;2023-08-24T05:40:43;19.36;79.86
71184;DHT22;58887;51.980;4.464;2023-08-24T05:43:09;19.45;79.76
71184;DHT22;58887;51.980;4.464;2023-08-24T05:45:35;19.49;79.73
71184;DHT22;58887;51.980;4.464;2023-08-24T05:48:01;19.54;79.79
71184;DHT22;58887;51.980;4.464;2023-08-24T05:50:28;19.56;79.74
71184;DHT22;58887;51.980;4.464;2023-08-24T05:52:53;19.61;79.89
71184;DHT22;58887;51.980;4.464;2023-08-24T05:55:19;19.69;79.55
71184;DHT22;58887;51.980;4.464;2023-08-24T05:57:45;19.66;80.02
71184;DHT22;58887;51.980;4.464;2023-08-24T06:00:11;19.70;79.66
71184;DHT22;58887;51.980;4.464;2023-08-24T06:02:37;19.73;79.72
71184;DHT22;58887;51.980;4.464;2023-08-24T06:05:08;19.85;79.32
71184;DHT22;58887;51.980;4.464;2023-08-24T06:07:35;19.92;79.21
71184;DHT22;58887;51.980;4.464;2023-08-24T06:10:00;19.96;79.17
71184;DHT22;58887;51.980;4.464;2023-08-24T06:12:47;19.99;78.81
71184;DHT22;58887;51.980;4.464;2023-08-24T06:15:13;20.12;78.87
71184;DHT22;58887;51.980;4.464;2023-08-24T06:17:39;20.17;78.47
71184;DHT22;58887;51.980;4.464;2023-08-24T06:20:04;20.24;78.46
71184;DHT22;58887;51.980;4.464;2023-08-24T06:22:35;20.26;78.28
71184;DHT22;58887;51.980;4.464;2023-08-24T06:25:03;20.36;78.24
71184;DHT22;58887;51.980;4.464;2023-08-24T06:27:32;20.44;78.18
71184;DHT22;58887;51.980;4.464;2023-08-24T06:29:58;20.47;77.91
71184;DHT22;58887;51.980;4.464;2023-08-24T06:32:25;20.55;77.54
71184;DHT22;58887;51.980;4.464;2023-08-24T06:34:52;20.64;77.21
71184;DHT22;58887;51.980;4.464;2023-08-24T06:37:19;20.65;77.00
71184;DHT22;58887;51.980;4.464;2023-08-24T06:39:46;20.63;77.03
71184;DHT22;58887;51.980;4.464;2023-08-24T06:42:14;20.67;76.97
71184;DHT22;58887;51.980;4.464;2023-08-24T06:44:55;20.78;76.89
71184;DHT22;58887;51.980;4.464;2023-08-24T06:47:29;20.88;76.84
71184;DHT22;58887;51.980;4.464;2023-08-24T06:49:55;21.06;76.20
71184;DHT22;58887;51.980;4.464;2023-08-24T06:52:21;21.13;76.28
71184;DHT22;58887;51.980;4.464;2023-08-24T06:54:51;21.20;75.63
71184;DHT22;58887;51.980;4.464;2023-08-24T06:57:19;21.35;75.20
71184;DHT22;58887;51.980;4.464;2023-08-24T06:59:45;21.46;74.93
71184;DHT22;58887;51.980;4.464;2023-08-24T07:02:10;21.54;74.58
71184;DHT22;58887;51.980;4.464;2023-08-24T07:04:41;21.57;74.02
71184;DHT22;58887;51.980;4.464;2023-08-24T07:07:09;21.57;74.09
71184;DHT22;58887;51.980;4.464;2023-08-24T07:09:35;21.60;74.09
71184;DHT22;58887;51.980;4.464;2023-08-24T07:12:04;21.70;74.27
71184;DHT22;58887;51.980;4.464;2023-08-24T07:14:38;21.83;74.06
71184;DHT22;58887;51.980;4.464;2023-08-24T07:17:09;22.02;72.97
71184;DHT22;58887;51.980;4.464;2023-08-24T07:19:41;22.26;72.51
71184;DHT22;58887;51.980;4.464;2023-08-24T07:22:06;22.39;72.12
71184;DHT22;58887;51.980;4.464;2023-08-24T07:24:32;22.63;71.82
71184;DHT22;58887;51.980;4.464;2023-08-24T07:27:04;22.90;70.45
71184;DHT22;58887;51.980;4.464;2023-08-24T07:29:31;23.08;69.72
71184;DHT22;58887;51.980;4.464;2023-08-24T07:31:57;23.27;70.36
71184;DHT22;58887;51.980;4.464;2023-08-24T07:34:22;23.51;69.31
71184;DHT22;58887;51.980;4.464;2023-08-24T07:36:50;23.66;68.24
71184;DHT22;58887;51.980;4.464;2023-08-24T07:39:16;23.79;67.59
71184;DHT22;58887;51.980;4.464;2023-08-24T07:41:47;23.78;66.62
71184;DHT22;58887;51.980;4.464;2023-08-24T07:44:16;23.62;66.90
71184;DHT22;58887;51.980;4.464;2023-08-24T07:46:42;23.82;67.27
71184;DHT22;58887;51.980;4.464;2023-08-24T07:49:07;23.80;67.33
71184;DHT22;58887;51.980;4.464;2023-08-24T07:51:36;24.00;66.42
71184;DHT22;58887;51.980;4.464;2023-08-24T07:54:02;24.14;66.42
71184;DHT22;58887;51.980;4.464;2023-08-24T07:56:30;24.27;66.18
71184;DHT22;58887;51.980;4.464;2023-08-24T07:58:56;24.24;66.45
71184;DHT22;58887;51.980;4.464;2023-08-24T08:01:21;24.16;66.71
71184;DHT22;58887;51.980;4.464;2023-08-24T08:03:47;24.29;67.59
71184;DHT22;58887;51.980;4.464;2023-08-24T08:06:12;24.51;66.51
71184;DHT22;58887;51.980;4.464;2023-08-24T08:08:39;24.71;66.56
71184;DHT22;58887;51.980;4.464;2023-08-24T08:11:04;24.78;66.05
71184;DHT22;58887;51.980;4.464;2023-08-24T08:13:30;24.65;66.41
71184;DHT22;58887;51.980;4.464;2023-08-24T08:16:06;24.60;66.25
71184;DHT22;58887;51.980;4.464;2023-08-24T08:18:33;24.74;66.58
71184;DHT22;58887;51.980;4.464;2023-08-24T08:20:59;24.50;65.92
71184;DHT22;58887;51.980;4.464;2023-08-24T08:23:25;24.50;65.83
71184;DHT22;58887;51.980;4.464;2023-08-24T08:25:51;24.48;66.78
71184;DHT22;58887;51.980;4.464;2023-08-24T08:28:24;24.61;66.83
71184;DHT22;58887;51.980;4.464;2023-08-24T08:30:49;24.61;66.59
71184;DHT22;58887;51.980;4.464;2023-08-24T08:33:20;24.81;66.56
71184;DHT22;58887;51.980;4.464;2023-08-24T08:35:49;24.85;66.26
71184;DHT22;58887;51.980;4.464;2023-08-24T08:38:16;24.81;65.90
71184;DHT22;58887;51.980;4.464;2023-08-24T08:40:45;24.81;66.16
71184;DHT22;58887;51.980;4.464;2023-08-24T08:43:21;24.91;65.85
71184;DHT22;58887;51.980;4.464;2023-08-24T08:45:59;24.94;65.39
71184;DHT22;58887;51.980;4.464;2023-08-24T08:48:36;25.05;65.58
71184;DHT22;58887;51.980;4.464;2023-08-24T08:51:04;25.08;65.87
71184;DHT22;58887;51.980;4.464;2023-08-24T08:53:36;25.25;65.33
71184;DHT22;58887;51.980;4.464;2023-08-24T08:59:28;25.67;64.62
71184;DHT22;58887;51.980;4.464;2023-08-24T09:05:28;25.83;65.29
71184;DHT22;58887;51.980;4.464;2023-08-24T09:14:45;25.90;64.56
71184;DHT22;58887;51.980;4.464;2023-08-24T09:17:34;25.97;64.74
71184;DHT22;58887;51.980;4.464;2023-08-24T09:20:07;26.07;64.20
71184;DHT22;58887;51.980;4.464;2023-08-24T09:22:43;26.09;63.10
71184;DHT22;58887;51.980;4.464;2023-08-24T09:25:09;26.05;63.52
71184;DHT22;58887;51.980;4.464;2023-08-24T09:27:42;26.01;63.82
71184;DHT22;58887;51.980;4.464;2023-08-24T09:30:08;25.96;64.48
71184;DHT22;58887;51.980;4.464;2023-08-24T09:32:33;25.77;65.05
71184;DHT22;58887;51.980;4.464;2023-08-24T09:35:09;25.53;65.52
71184;DHT22;58887;51.980;4.464;2023-08-24T09:37:37;25.43;66.15
71184;DHT22;58887;51.980;4.464;2023-08-24T09:40:07;25.32;66.56
71184;DHT22;58887;51.980;4.464;2023-08-24T09:42:41;25.22;66.21
71184;DHT22;58887;51.980;4.464;2023-08-24T09:45:11;25.09;66.55
71184;DHT22;58887;51.980;4.464;2023-08-24T09:47:37;24.95;66.71
71184;DHT22;58887;51.980;4.464;2023-08-24T09:50:04;24.88;68.65
71184;DHT22;58887;51.980;4.464;2023-08-24T09:52:32;24.85;68.29
71184;DHT22;58887;51.980;4.464;2023-08-24T09:55:05;24.79;68.09
71184;DHT22;58887;51.980;4.464;2023-08-24T09:57:42;24.78;68.20
71184;DHT22;58887;51.980;4.464;2023-08-24T10:00:10;24.75;68.29
71184;DHT22;58887;51.980;4.464;2023-08-24T10:02:49;24.74;67.63
71184;DHT22;58887;51.980;4.464;2023-08-24T10:05:31;24.74;67.73
71184;DHT22;58887;51.980;4.464;2023-08-24T10:08:00;24.69;67.79
71184;DHT22;58887;51.980;4.464;2023-08-24T10:10:29;24.57;68.60
71184;DHT22;58887;51.980;4.464;2023-08-24T10:13:08;24.41;69.00
71184;DHT22;58887;51.980;4.464;2023-08-24T10:15:42;24.37;69.40
71184;DHT22;58887;51.980;4.464;2023-08-24T10:18:13;24.33;69.89
71184;DHT22;58887;51.980;4.464;2023-08-24T10:20:52;24.50;69.29
71184;DHT22;58887;51.980;4.464;2023-08-24T10:23:19;24.68;69.56
71184;DHT22;58887;51.980;4.464;2023-08-24T10:25:46;24.88;70.66
71184;DHT22;58887;51.980;4.464;2023-08-24T10:28:14;25.15;69.47
71184;DHT22;58887;51.980;4.464;2023-08-24T10:30:47;25.36;69.74
71184;DHT22;58887;51.980;4.464;2023-08-24T10:33:14;25.54;68.94
71184;DHT22;58887;51.980;4.464;2023-08-24T10:35:42;25.67;68.99
71184;DHT22;58887;51.980;4.464;2023-08-24T10:38:26;25.87;69.17
71184;DHT22;58887;51.980;4.464;2023-08-24T10:41:02;26.20;68.24
71184;DHT22;58887;51.980;4.464;2023-08-24T10:43:36;26.45;66.64
71184;DHT22;58887;51.980;4.464;2023-08-24T10:46:11;26.52;67.11
71184;DHT22;58887;51.980;4.464;2023-08-24T10:51:23;26.56;65.02
71184;DHT22;58887;51.980;4.464;2023-08-24T10:53:53;26.45;64.72
71184;DHT22;58887;51.980;4.464;2023-08-24T10:56:19;26.22;66.41
71184;DHT22;58887;51.980;4.464;2023-08-24T10:58:46;26.25;67.53
71184;DHT22;58887;51.980;4.464;2023-08-24T11:01:19;26.22;68.07
71184;DHT22;58887;51.980;4.464;2023-08-24T11:03:55;26.28;68.21
71184;DHT22;58887;51.980;4.464;2023-08-24T11:06:30;26.08;66.86
71184;DHT22;58887;51.980;4.464;2023-08-24T11:09:09;25.98;66.92
71184;DHT22;58887;51.980;4.464;2023-08-24T11:11:40;26.00;67.24
71184;DHT22;58887;51.980;4.464;2023-08-24T11:14:20;26.11;67.74
71184;DHT22;58887;51.980;4.464;2023-08-24T11:16:49;26.25;66.68
71184;DHT22;58887;51.980;4.464;2023-08-24T11:19:16;26.44;65.33
71184;DHT22;58887;51.980;4.464;2023-08-24T11:21:46;26.59;66.64
71184;DHT22;58887;51.980;4.464;2023-08-24T11:24:13;26.65;65.90
71184;DHT22;58887;51.980;4.464;2023-08-24T11:26:46;26.68;64.82
71184;DHT22;58887;51.980;4.464;2023-08-24T11:29:13;26.65;65.21
71184;DHT22;58887;51.980;4.464;2023-08-24T11:31:39;26.80;64.83
71184;DHT22;58887;51.980;4.464;2023-08-24T11:34:06;27.11;65.43
71184;DHT22;58887;51.980;4.464;2023-08-24T11:39:59;27.27;63.02
71184;DHT22;58887;51.980;4.464;2023-08-24T11:42:36;27.14;64.36
71184;DHT22;58887;51.980;4.464;2023-08-24T11:45:11;26.87;64.47
71184;DHT22;58887;51.980;4.464;2023-08-24T11:47:40;26.59;65.53
71184;DHT22;58887;51.980;4.464;2023-08-24T11:50:08;26.69;64.59
71184;DHT22;58887;51.980;4.464;2023-08-24T11:52:44;27.30;64.36
71184;DHT22;58887;51.980;4.464;2023-08-24T11:55:10;27.54;63.17
71184;DHT22;58887;51.980;4.464;2023-08-24T11:57:36;28.42;63.47
71184;DHT22;58887;51.980;4.464;2023-08-24T12:00:04;28.72;60.72
71184;DHT22;58887;51.980;4.464;2023-08-24T12:02:30;28.70;59.99
71184;DHT22;58887;51.980;4.464;2023-08-24T12:05:01;28.23;60.89
71184;DHT22;58887;51.980;4.464;2023-08-24T12:07:34;28.26;61.84
71184;DHT22;58887;51.980;4.464;2023-08-24T12:10:02;28.29;60.02
71184;DHT22;58887;51.980;4.464;2023-08-24T12:12:28;28.33;61.06
71184;DHT22;58887;51.980;4.464;2023-08-24T12:15:05;28.64;59.73
71184;DHT22;58887;51.980;4.464;2023-08-24T12:17:42;29.14;58.75
71184;DHT22;58887;51.980;4.464;2023-08-24T12:20:17;29.05;59.21
71184;DHT22;58887;51.980;4.464;2023-08-24T12:23:03;29.45;59.64
71184;DHT22;58887;51.980;4.464;2023-08-24T12:25:53;30.35;57.43
71184;DHT22;58887;51.980;4.464;2023-08-24T12:28:19;31.30;53.35
71184;DHT22;58887;51.980;4.464;2023-08-24T12:30:54;30.75;54.28
71184;DHT22;58887;51.980;4.464;2023-08-24T12:40:00;31.68;53.05
71184;DHT22;58887;51.980;4.464;2023-08-24T12:42:31;32.21;52.00
71184;DHT22;58887;51.980;4.464;2023-08-24T12:45:02;32.99;48.95
71184;DHT22;58887;51.980;4.464;2023-08-24T12:47:32;33.35;46.29
71184;DHT22;58887;51.980;4.464;2023-08-24T12:50:06;32.37;49.73
71184;DHT22;58887;51.980;4.464;2023-08-24T12:52:33;32.06;51.88
71184;DHT22;58887;51.980;4.464;2023-08-24T12:54:59;32.08;51.25
71184;DHT22;58887;51.980;4.464;2023-08-24T12:57:29;31.77;52.07
71184;DHT22;58887;51.980;4.464;2023-08-24T12:59:55;31.27;53.38
71184;DHT22;58887;51.980;4.464;2023-08-24T13:02:27;31.19;53.81
71184;DHT22;58887;51.980;4.464;2023-08-24T13:04:59;31.16;53.61
71184;DHT22;58887;51.980;4.464;2023-08-24T13:07:36;31.29;54.03
71184;DHT22;58887;51.980;4.464;2023-08-24T13:10:04;31.29;54.35
71184;DHT22;58887;51.980;4.464;2023-08-24T13:12:39;31.26;53.00
71184;DHT22;58887;51.980;4.464;2023-08-24T13:15:06;31.03;53.82
71184;DHT22;58887;51.980;4.464;2023-08-24T13:17:59;30.57;54.21
71184;DHT22;58887;51.980;4.464;2023-08-24T13:20:25;30.14;51.98
71184;DHT22;58887;51.980;4.464;2023-08-24T13:22:52;30.41;53.10
71184;DHT22;58887;51.980;4.464;2023-08-24T13:25:25;30.21;52.22
71184;DHT22;58887;51.980;4.464;2023-08-24T13:27:52;30.41;53.74
71184;DHT22;58887;51.980;4.464;2023-08-24T13:30:20;30.74;52.06
71184;DHT22;58887;51.980;4.464;2023-08-24T13:32:48;30.48;51.28
71184;DHT22;58887;51.980;4.464;2023-08-24T13:35:25;30.48;52.10
71184;DHT22;58887;51.980;4.464;2023-08-24T13:37:51;30.18;52.99
71184;DHT22;58887;51.980;4.464;2023-08-24T13:40:24;30.31;52.82
71184;DHT22;58887;51.980;4.464;2023-08-24T13:42:50;30.34;52.89
71184;DHT22;58887;51.980;4.464;2023-08-24T13:45:18;30.04;53.00
71184;DHT22;58887;51.980;4.464;2023-08-24T13:47:44;29.94;54.06
71184;DHT22;58887;51.980;4.464;2023-08-24T13:50:10;29.80;53.70
71184;DHT22;58887;51.980;4.464;2023-08-24T13:52:37;29.36;55.06
71184;DHT22;58887;51.980;4.464;2023-08-24T13:55:03;28.86;56.12
71184;DHT22;58887;51.980;4.464;2023-08-24T13:57:31;28.37;56.76
71184;DHT22;58887;51.980;4.464;2023-08-24T14:00:05;27.95;58.31
71184;DHT22;58887;51.980;4.464;2023-08-24T14:02:40;28.02;58.19
71184;DHT22;58887;51.980;4.464;2023-08-24T14:05:12;27.95;58.83
71184;DHT22;58887;51.980;4.464;2023-08-24T14:07:44;27.77;59.05
71184;DHT22;58887;51.980;4.464;2023-08-24T14:10:10;27.66;58.86
71184;DHT22;58887;51.980;4.464;2023-08-24T14:12:48;27.38;58.54
71184;DHT22;58887;51.980;4.464;2023-08-24T14:15:14;27.03;60.02
71184;DHT22;58887;51.980;4.464;2023-08-24T14:17:40;27.08;60.87
71184;DHT22;58887;51.980;4.464;2023-08-24T14:20:06;26.96;61.73
71184;DHT22;58887;51.980;4.464;2023-08-24T14:22:34;27.08;61.73
71184;DHT22;58887;51.980;4.464;2023-08-24T14:25:06;27.04;60.91
71184;DHT22;58887;51.980;4.464;2023-08-24T14:27:31;27.03;60.82
71184;DHT22;58887;51.980;4.464;2023-08-24T14:29:56;26.97;60.57
71184;DHT22;58887;51.980;4.464;2023-08-24T14:32:30;27.10;60.88
71184;DHT22;58887;51.980;4.464;2023-08-24T14:34:55;27.38;60.78
71184;DHT22;58887;51.980;4.464;2023-08-24T14:37:27;27.78;60.86
71184;DHT22;58887;51.980;4.464;2023-08-24T14:39:58;28.22;59.90
71184;DHT22;58887;51.980;4.464;2023-08-24T14:42:25;28.37;58.51
71184;DHT22;58887;51.980;4.464;2023-08-24T14:44:56;29.14;57.76
71184;DHT22;58887;51.980;4.464;2023-08-24T14:47:28;30.32;54.31
71184;DHT22;58887;51.980;4.464;2023-08-24T14:50:01;31.50;52.18
71184;DHT22;58887;51.980;4.464;2023-08-24T14:52:32;31.51;51.61
71184;DHT22;58887;51.980;4.464;2023-08-24T14:55:06;31.09;53.15
71184;DHT22;58887;51.980;4.464;2023-08-24T14:57:36;30.83;52.88
71184;DHT22;58887;51.980;4.464;2023-08-24T15:00:03;30.96;53.25
71184;DHT22;58887;51.980;4.464;2023-08-24T15:02:33;30.61;54.00
71184;DHT22;58887;51.980;4.464;2023-08-24T15:05:01;30.06;54.85
71184;DHT22;58887;51.980;4.464;2023-08-24T15:07:26;29.40;56.64
71184;DHT22;58887;51.980;4.464;2023-08-24T15:09:52;28.60;56.59
71184;DHT22;58887;51.980;4.464;2023-08-24T15:12:24;28.23;57.25
71184;DHT22;58887;51.980;4.464;2023-08-24T15:14:58;27.74;58.00
71184;DHT22;58887;51.980;4.464;2023-08-24T15:17:24;27.68;58.64
71184;DHT22;58887;51.980;4.464;2023-08-24T15:19:50;27.71;59.00
71184;DHT22;58887;51.980;4.464;2023-08-24T15:22:15;27.65;58.83
71184;DHT22;58887;51.980;4.464;2023-08-24T15:24:50;27.61;59.62
71184;DHT22;58887;51.980;4.464;2023-08-24T15:27:15;27.58;58.39
71184;DHT22;58887;51.980;4.464;2023-08-24T15:29:46;27.45;57.40
71184;DHT22;58887;51.980;4.464;2023-08-24T15:32:23;27.37;57.26
71184;DHT22;58887;51.980;4.464;2023-08-24T15:35:00;27.27;57.91
71184;DHT22;58887;51.980;4.464;2023-08-24T15:37:50;27.17;58.11
71184;DHT22;58887;51.980;4.464;2023-08-24T15:40:15;27.43;57.41
71184;DHT22;58887;51.980;4.464;2023-08-24T15:42:41;27.40;57.06
71184;DHT22;58887;51.980;4.464;2023-08-24T15:45:15;27.44;57.18
71184;DHT22;58887;51.980;4.464;2023-08-24T15:47:42;27.33;57.82
71184;DHT22;58887;51.980;4.464;2023-08-24T15:50:07;27.81;56.82
71184;DHT22;58887;51.980;4.464;2023-08-24T15:52:33;28.32;55.64
71184;DHT22;58887;51.980;4.464;2023-08-24T15:54:58;28.08;56.79
71184;DHT22;58887;51.980;4.464;2023-08-24T15:57:24;27.43;57.50
71184;DHT22;58887;51.980;4.464;2023-08-24T15:59:49;27.22;57.87
71184;DHT22;58887;51.980;4.464;2023-08-24T16:02:16;27.04;58.82
71184;DHT22;58887;51.980;4.464;2023-08-24T16:04:41;26.93;59.91
71184;DHT22;58887;51.980;4.464;2023-08-24T16:07:07;26.73;59.35
71184;DHT22;58887;51.980;4.464;2023-08-24T16:09:32;26.32;60.41